sensor_id;sensor_type;location;lat;lon;timestamp;temperature;humidity
16523;DHT22;19889;52.546;13.348;2023-07-20T00:00:12;20.80;99.90
16523;DHT22;19889;52.546;13.348;2023-07-20T00:02:39;20.70;99.90
16523;DHT22;19889;52.546;13.348;2023-07-20T00:05:06;20.70;99.90
16523;DHT22;19889;52.546;13.348;2023-07-20T00:07:33;20.70;99.90
16523;DHT22;19889;52.546;13.348;2023-07-20T00:10:01;20.70;99.90
16523;DHT22;19889;52.546;13.348;2023-07-20T00:12:28;20.60;99.90
16523;DHT22;19889;52.546;13.348;2023-07-20T00:14:56;20.70;99.90
16523;DHT22;19889;52.546;13.348;2023-07-20T00:20:20;20.60;99.90
16523;DHT22;19889;52.546;13.348;2023-07-20T00:22:47;20.60;99.90
16523;DHT22;19889;52.546;13.348;2023-07-20T00:25:17;20.60;99.90
16523;DHT22;19889;52.546;13.348;2023-07-20T00:27:44;20.50;99.90
16523;DHT22;19889;52.546;13.348;2023-07-20T00:30:13;20.60;99.90
16523;DHT22;19889;52.546;13.348;2023-07-20T00:32:41;20.50;99.90
16523;DHT22;19889;52.546;13.348;2023-07-20T00:35:09;20.50;99.90
16523;DHT22;19889;52.546;13.348;2023-07-20T00:37:36;20.50;99.90
16523;DHT22;19889;52.546;13.348;2023-07-20T00:40:06;20.50;99.90
16523;DHT22;19889;52.546;13.348;2023-07-20T00:42:33;20.50;99.90
16523;DHT22;19889;52.546;13.348;2023-07-20T00:45:02;20.40;99.90
16523;DHT22;19889;52.546;13.348;2023-07-20T00:47:31;20.50;99.90
16523;DHT22;19889;52.546;13.348;2023-07-20T00:49:59;20.40;99.90
16523;DHT22;19889;52.546;13.348;2023-07-20T00:52:28;21.40;99.90
16523;DHT22;19889;52.546;13.348;2023-07-20T00:54:56;20.40;99.90
16523;DHT22;19889;52.546;13.348;2023-07-20T00:57:24;20.40;99.90
16523;DHT22;19889;52.546;13.348;2023-07-20T00:59:52;20.40;99.90
16523;DHT22;19889;52.546;13.348;2023-07-20T01:02:19;20.40;99.90
16523;DHT22;19889;52.546;13.348;2023-07-20T01:04:48;20.40;99.90
16523;DHT22;19889;52.546;13.348;2023-07-20T01:07:23;20.30;99.90
16523;DHT22;19889;52.546;13.348;2023-07-20T01:09:58;18.80;99.90
16523;DHT22;19889;52.546;13.348;2023-07-20T01:12:31;20.30;99.90
16523;DHT22;19889;52.546;13.348;2023-07-20T01:15:00;20.30;99.90
16523;DHT22;19889;52.546;13.348;2023-07-20T01:17:27;20.30;99.90
16523;DHT22;19889;52.546;13.348;2023-07-20T01:19:56;20.30;99.90
16523;DHT22;19889;52.546;13.348;2023-07-20T01:26:19;20.30;99.90
16523;DHT22;19889;52.546;13.348;2023-07-20T01:29:08;20.20;99.90
16523;DHT22;19889;52.546;13.348;2023-07-20T01:31:41;20.20;99.90
16523;DHT22;19889;52.546;13.348;2023-07-20T01:34:12;20.60;99.90
16523;DHT22;19889;52.546;13.348;2023-07-20T01:36:42;20.20;99.90
16523;DHT22;19889;52.546;13.348;2023-07-20T01:39:39;20.20;99.90
16523;DHT22;19889;52.546;13.348;2023-07-20T01:42:22;20.20;99.90
16523;DHT22;19889;52.546;13.348;2023-07-20T01:44:51;20.10;99.90
16523;DHT22;19889;52.546;13.348;2023-07-20T01:47:20;20.10;99.90
16523;DHT22;19889;52.546;13.348;2023-07-20T01:50:23;20.20;99.90
16523;DHT22;19889;52.546;13.348;2023-07-20T01:52:50;20.10;99.90
16523;DHT22;19889;52.546;13.348;2023-07-20T01:55:18;20.10;99.90
16523;DHT22;19889;52.546;13.348;2023-07-20T01:57:46;20.10;99.90
16523;DHT22;19889;52.546;13.348;2023-07-20T02:00:13;20.10;99.90
16523;DHT22;19889;52.546;13.348;2023-07-20T02:02:42;20.10;99.90
16523;DHT22;19889;52.546;13.348;2023-07-20T02:05:10;20.10;99.90
16523;DHT22;19889;52.546;13.348;2023-07-20T02:07:37;20.10;99.90
16523;DHT22;19889;52.546;13.348;2023-07-20T02:10:06;20.10;99.90
16523;DHT22;19889;52.546;13.348;2023-07-20T02:12:35;20.00;99.90
16523;DHT22;19889;52.546;13.348;2023-07-20T02:15:03;20.00;99.90
16523;DHT22;19889;52.546;13.348;2023-07-20T02:17:30;20.00;99.90
16523;DHT22;19889;52.546;13.348;2023-07-20T02:19:59;20.00;99.90
16523;DHT22;19889;52.546;13.348;2023-07-20T02:22:26;20.00;99.90
16523;DHT22;19889;52.546;13.348;2023-07-20T02:24:53;20.00;99.90
16523;DHT22;19889;52.546;13.348;2023-07-20T02:27:39;20.00;99.90
16523;DHT22;19889;52.546;13.348;2023-07-20T02:30:07;20.00;99.90
16523;DHT22;19889;52.546;13.348;2023-07-20T02:32:36;20.00;99.90
16523;DHT22;19889;52.546;13.348;2023-07-20T02:35:06;20.00;99.90
16523;DHT22;19889;52.546;13.348;2023-07-20T02:37:33;19.90;99.90
16523;DHT22;19889;52.546;13.348;2023-07-20T02:40:00;19.90;99.90
16523;DHT22;19889;52.546;13.348;2023-07-20T02:42:29;19.90;99.90
16523;DHT22;19889;52.546;13.348;2023-07-20T02:44:56;19.90;99.90
16523;DHT22;19889;52.546;13.348;2023-07-20T02:47:24;19.90;99.90
16523;DHT22;19889;52.546;13.348;2023-07-20T02:49:51;19.90;99.90
16523;DHT22;19889;52.546;13.348;2023-07-20T02:52:19;19.90;99.90
16523;DHT22;19889;52.546;13.348;2023-07-20T02:54:47;19.90;99.90
16523;DHT22;19889;52.546;13.348;2023-07-20T02:57:14;19.90;99.90
16523;DHT22;19889;52.546;13.348;2023-07-20T02:59:41;19.80;99.90
16523;DHT22;19889;52.546;13.348;2023-07-20T03:02:08;19.80;99.90
16523;DHT22;19889;52.546;13.348;2023-07-20T03:04:36;19.80;99.90
16523;DHT22;19889;52.546;13.348;2023-07-20T03:07:05;19.80;99.90
16523;DHT22;19889;52.546;13.348;2023-07-20T03:09:34;19.80;99.90
16523;DHT22;19889;52.546;13.348;2023-07-20T03:12:01;19.80;99.90
16523;DHT22;19889;52.546;13.348;2023-07-20T03:14:31;19.80;99.90
16523;DHT22;19889;52.546;13.348;2023-07-20T03:16:58;19.80;99.90
16523;DHT22;19889;52.546;13.348;2023-07-20T03:19:25;19.80;99.90
16523;DHT22;19889;52.546;13.348;2023-07-20T03:21:53;19.80;99.90
16523;DHT22;19889;52.546;13.348;2023-07-20T03:24:21;19.80;99.90
16523;DHT22;19889;52.546;13.348;2023-07-20T03:26:51;19.80;99.90
16523;DHT22;19889;52.546;13.348;2023-07-20T03:29:18;19.80;99.90
16523;DHT22;19889;52.546;13.348;2023-07-20T03:32:10;19.80;99.90
16523;DHT22;19889;52.546;13.348;2023-07-20T03:34:37;19.80;99.90
16523;DHT22;19889;52.546;13.348;2023-07-20T03:37:05;19.80;99.90
16523;DHT22;19889;52.546;13.348;2023-07-20T03:39:32;19.70;99.90
16523;DHT22;19889;52.546;13.348;2023-07-20T03:42:01;20.50;99.90
16523;DHT22;19889;52.546;13.348;2023-07-20T03:44:28;19.70;99.90
16523;DHT22;19889;52.546;13.348;2023-07-20T03:46:55;19.70;99.90
16523;DHT22;19889;52.546;13.348;2023-07-20T03:49:22;19.70;99.90
16523;DHT22;19889;52.546;13.348;2023-07-20T03:51:49;19.70;99.90
16523;DHT22;19889;52.546;13.348;2023-07-20T03:54:16;19.60;99.90
16523;DHT22;19889;52.546;13.348;2023-07-20T03:56:44;19.60;99.90
16523;DHT22;19889;52.546;13.348;2023-07-20T03:59:13;19.70;99.90
16523;DHT22;19889;52.546;13.348;2023-07-20T04:01:40;19.70;99.90
16523;DHT22;19889;52.546;13.348;2023-07-20T04:04:08;19.70;99.90
16523;DHT22;19889;52.546;13.348;2023-07-20T04:06:35;19.60;99.90
16523;DHT22;19889;52.546;13.348;2023-07-20T04:09:03;19.70;99.90
16523;DHT22;19889;52.546;13.348;2023-07-20T04:11:32;19.70;99.90
16523;DHT22;19889;52.546;13.348;2023-07-20T04:13:59;19.70;99.90
16523;DHT22;19889;52.546;13.348;2023-07-20T04:16:28;19.70;99.90
16523;DHT22;19889;52.546;13.348;2023-07-20T04:19:09;19.70;99.90
16523;DHT22;19889;52.546;13.348;2023-07-20T04:21:40;19.70;99.90
16523;DHT22;19889;52.546;13.348;2023-07-20T04:24:08;19.70;99.90
16523;DHT22;19889;52.546;13.348;2023-07-20T04:26:37;19.70;99.90
16523;DHT22;19889;52.546;13.348;2023-07-20T04:29:04;19.70;99.90
16523;DHT22;19889;52.546;13.348;2023-07-20T04:31:40;19.70;99.90
16523;DHT22;19889;52.546;13.348;2023-07-20T04:34:08;19.70;99.90
16523;DHT22;19889;52.546;13.348;2023-07-20T04:36:36;19.70;99.90
16523;DHT22;19889;52.546;13.348;2023-07-20T04:39:05;19.70;99.90
16523;DHT22;19889;52.546;13.348;2023-07-20T04:41:38;19.70;99.90
16523;DHT22;19889;52.546;13.348;2023-07-20T04:44:06;19.70;99.90
16523;DHT22;19889;52.546;13.348;2023-07-20T04:46:34;19.70;99.90
16523;DHT22;19889;52.546;13.348;2023-07-20T04:49:04;19.70;99.90
16523;DHT22;19889;52.546;13.348;2023-07-20T04:51:36;19.70;99.90
16523;DHT22;19889;52.546;13.348;2023-07-20T04:54:04;19.70;99.90
16523;DHT22;19889;52.546;13.348;2023-07-20T04:56:35;19.70;99.90
16523;DHT22;19889;52.546;13.348;2023-07-20T04:59:05;19.70;99.90
16523;DHT22;19889;52.546;13.348;2023-07-20T05:01:33;19.70;99.90
16523;DHT22;19889;52.546;13.348;2023-07-20T05:04:00;18.50;99.90
16523;DHT22;19889;52.546;13.348;2023-07-20T05:06:30;19.70;99.90
16523;DHT22;19889;52.546;13.348;2023-07-20T05:08:57;19.70;99.90
16523;DHT22;19889;52.546;13.348;2023-07-20T05:11:25;19.70;99.90
16523;DHT22;19889;52.546;13.348;2023-07-20T05:13:53;19.70;99.90
16523;DHT22;19889;52.546;13.348;2023-07-20T05:16:20;19.70;99.90
16523;DHT22;19889;52.546;13.348;2023-07-20T05:18:50;19.70;99.90
16523;DHT22;19889;52.546;13.348;2023-07-20T05:21:19;19.70;99.90
16523;DHT22;19889;52.546;13.348;2023-07-20T05:23:48;19.70;99.90
16523;DHT22;19889;52.546;13.348;2023-07-20T05:26:16;19.70;99.90
16523;DHT22;19889;52.546;13.348;2023-07-20T05:28:44;19.70;99.90
16523;DHT22;19889;52.546;13.348;2023-07-20T05:31:12;19.70;99.90
16523;DHT22;19889;52.546;13.348;2023-07-20T05:33:40;19.70;99.90
16523;DHT22;19889;52.546;13.348;2023-07-20T05:36:07;19.70;99.90
16523;DHT22;19889;52.546;13.348;2023-07-20T05:38:36;19.70;99.90
16523;DHT22;19889;52.546;13.348;2023-07-20T05:41:19;19.70;99.90
16523;DHT22;19889;52.546;13.348;2023-07-20T05:43:46;19.70;99.90
16523;DHT22;19889;52.546;13.348;2023-07-20T05:46:14;19.70;99.90
16523;DHT22;19889;52.546;13.348;2023-07-20T05:48:41;19.80;99.90
16523;DHT22;19889;52.546;13.348;2023-07-20T05:51:09;19.80;99.90
16523;DHT22;19889;52.546;13.348;2023-07-20T05:53:38;19.80;99.90
16523;DHT22;19889;52.546;13.348;2023-07-20T05:56:10;19.80;99.90
16523;DHT22;19889;52.546;13.348;2023-07-20T05:58:39;19.80;99.90
16523;DHT22;19889;52.546;13.348;2023-07-20T06:01:06;19.80;99.90
16523;DHT22;19889;52.546;13.348;2023-07-20T06:03:34;19.80;99.90
16523;DHT22;19889;52.546;13.348;2023-07-20T06:06:03;19.80;99.90
16523;DHT22;19889;52.546;13.348;2023-07-20T06:08:31;19.90;99.90
16523;DHT22;19889;52.546;13.348;2023-07-20T06:11:00;19.80;99.90
16523;DHT22;19889;52.546;13.348;2023-07-20T06:13:28;19.80;99.90
16523;DHT22;19889;52.546;13.348;2023-07-20T06:15:57;19.80;99.90
16523;DHT22;19889;52.546;13.348;2023-07-20T06:18:24;19.80;99.90
16523;DHT22;19889;52.546;13.348;2023-07-20T06:20:52;19.80;99.90
16523;DHT22;19889;52.546;13.348;2023-07-20T06:23:28;19.90;99.90
16523;DHT22;19889;52.546;13.348;2023-07-20T06:26:00;19.90;99.90
16523;DHT22;19889;52.546;13.348;2023-07-20T06:28:27;19.90;99.90
16523;DHT22;19889;52.546;13.348;2023-07-20T06:31:01;19.90;99.90
16523;DHT22;19889;52.546;13.348;2023-07-20T06:33:38;19.90;99.90
16523;DHT22;19889;52.546;13.348;2023-07-20T06:36:08;19.90;99.90
16523;DHT22;19889;52.546;13.348;2023-07-20T06:38:35;19.90;99.90
16523;DHT22;19889;52.546;13.348;2023-07-20T06:41:03;19.90;99.90
16523;DHT22;19889;52.546;13.348;2023-07-20T06:43:31;19.90;99.90
16523;DHT22;19889;52.546;13.348;2023-07-20T06:46:00;19.90;99.90
16523;DHT22;19889;52.546;13.348;2023-07-20T06:48:27;19.90;99.90
16523;DHT22;19889;52.546;13.348;2023-07-20T06:50:55;19.90;99.90
16523;DHT22;19889;52.546;13.348;2023-07-20T06:53:23;19.80;99.90
16523;DHT22;19889;52.546;13.348;2023-07-20T06:56:28;19.80;99.90
16523;DHT22;19889;52.546;13.348;2023-07-20T06:58:55;19.90;99.90
16523;DHT22;19889;52.546;13.348;2023-07-20T07:01:24;19.90;99.90
16523;DHT22;19889;52.546;13.348;2023-07-20T07:03:51;19.90;99.90
16523;DHT22;19889;52.546;13.348;2023-07-20T07:06:18;19.90;99.90
16523;DHT22;19889;52.546;13.348;2023-07-20T07:08:47;19.90;99.90
16523;DHT22;19889;52.546;13.348;2023-07-20T07:11:14;19.90;99.90
16523;DHT22;19889;52.546;13.348;2023-07-20T07:13:42;19.90;99.90
16523;DHT22;19889;52.546;13.348;2023-07-20T07:16:12;19.90;99.90
16523;DHT22;19889;52.546;13.348;2023-07-20T07:18:46;19.90;99.90
16523;DHT22;19889;52.546;13.348;2023-07-20T07:21:13;19.90;99.90
16523;DHT22;19889;52.546;13.348;2023-07-20T07:23:41;20.00;99.90
16523;DHT22;19889;52.546;13.348;2023-07-20T07:26:09;21.40;99.90
16523;DHT22;19889;52.546;13.348;2023-07-20T07:28:37;20.00;99.90
16523;DHT22;19889;52.546;13.348;2023-07-20T07:31:05;20.00;99.90
16523;DHT22;19889;52.546;13.348;2023-07-20T07:33:32;20.10;99.90
16523;DHT22;19889;52.546;13.348;2023-07-20T07:36:02;20.10;99.90
16523;DHT22;19889;52.546;13.348;2023-07-20T07:38:29;20.20;99.90
16523;DHT22;19889;52.546;13.348;2023-07-20T07:40:58;20.20;99.90
16523;DHT22;19889;52.546;13.348;2023-07-20T07:43:25;20.20;99.90
16523;DHT22;19889;52.546;13.348;2023-07-20T07:45:54;20.20;99.90
16523;DHT22;19889;52.546;13.348;2023-07-20T07:48:21;20.20;99.90
16523;DHT22;19889;52.546;13.348;2023-07-20T07:50:51;20.30;99.90
16523;DHT22;19889;52.546;13.348;2023-07-20T07:53:20;20.30;99.90
16523;DHT22;19889;52.546;13.348;2023-07-20T07:55:48;20.40;99.90
16523;DHT22;19889;52.546;13.348;2023-07-20T07:58:15;20.40;99.90
16523;DHT22;19889;52.546;13.348;2023-07-20T08:00:43;20.50;99.90
16523;DHT22;19889;52.546;13.348;2023-07-20T08:03:10;20.50;99.90
16523;DHT22;19889;52.546;13.348;2023-07-20T08:05:38;20.50;99.90
16523;DHT22;19889;52.546;13.348;2023-07-20T08:08:05;20.60;99.90
16523;DHT22;19889;52.546;13.348;2023-07-20T08:10:36;20.60;99.90
16523;DHT22;19889;52.546;13.348;2023-07-20T08:13:03;20.60;99.90
16523;DHT22;19889;52.546;13.348;2023-07-20T08:15:31;20.60;99.90
16523;DHT22;19889;52.546;13.348;2023-07-20T08:17:58;20.50;99.90
16523;DHT22;19889;52.546;13.348;2023-07-20T08:20:26;20.50;99.90
16523;DHT22;19889;52.546;13.348;2023-07-20T08:22:54;20.50;99.90
16523;DHT22;19889;52.546;13.348;2023-07-20T08:25:22;20.60;99.90
16523;DHT22;19889;52.546;13.348;2023-07-20T08:27:51;20.60;99.90
16523;DHT22;19889;52.546;13.348;2023-07-20T08:30:22;20.70;99.90
16523;DHT22;19889;52.546;13.348;2023-07-20T08:32:50;20.70;99.90
16523;DHT22;19889;52.546;13.348;2023-07-20T08:35:18;20.70;99.90
16523;DHT22;19889;52.546;13.348;2023-07-20T08:37:46;20.70;99.90
16523;DHT22;19889;52.546;13.348;2023-07-20T08:40:14;20.70;99.90
16523;DHT22;19889;52.546;13.348;2023-07-20T08:42:42;20.70;99.90
16523;DHT22;19889;52.546;13.348;2023-07-20T08:45:13;20.70;99.90
16523;DHT22;19889;52.546;13.348;2023-07-20T08:47:42;20.70;99.60
16523;DHT22;19889;52.546;13.348;2023-07-20T08:50:12;20.70;99.50
16523;DHT22;19889;52.546;13.348;2023-07-20T08:52:40;20.70;99.30
16523;DHT22;19889;52.546;13.348;2023-07-20T08:55:09;20.70;99.20
16523;DHT22;19889;52.546;13.348;2023-07-20T08:57:38;20.70;99.20
16523;DHT22;19889;52.546;13.348;2023-07-20T09:00:11;20.80;99.20
16523;DHT22;19889;52.546;13.348;2023-07-20T09:02:42;20.70;99.00
16523;DHT22;19889;52.546;13.348;2023-07-20T09:05:11;20.80;99.00
16523;DHT22;19889;52.546;13.348;2023-07-20T09:07:40;20.80;99.00
16523;DHT22;19889;52.546;13.348;2023-07-20T09:10:08;20.90;99.00
16523;DHT22;19889;52.546;13.348;2023-07-20T09:12:37;20.90;98.90
16523;DHT22;19889;52.546;13.348;2023-07-20T09:15:06;20.90;98.70
16523;DHT22;19889;52.546;13.348;2023-07-20T09:17:35;21.00;99.00
16523;DHT22;19889;52.546;13.348;2023-07-20T09:20:10;21.00;98.80
16523;DHT22;19889;52.546;13.348;2023-07-20T09:22:38;21.00;98.70
16523;DHT22;19889;52.546;13.348;2023-07-20T09:25:07;21.10;98.50
16523;DHT22;19889;52.546;13.348;2023-07-20T09:27:35;21.10;98.40
16523;DHT22;19889;52.546;13.348;2023-07-20T09:30:08;21.20;98.40
16523;DHT22;19889;52.546;13.348;2023-07-20T09:32:43;21.20;98.50
16523;DHT22;19889;52.546;13.348;2023-07-20T09:35:14;21.20;98.20
16523;DHT22;19889;52.546;13.348;2023-07-20T09:37:50;21.20;98.10
16523;DHT22;19889;52.546;13.348;2023-07-20T09:40:19;21.10;97.90
16523;DHT22;19889;52.546;13.348;2023-07-20T09:42:47;21.10;97.80
16523;DHT22;19889;52.546;13.348;2023-07-20T09:45:15;21.10;97.80
16523;DHT22;19889;52.546;13.348;2023-07-20T09:47:44;21.00;98.10
16523;DHT22;19889;52.546;13.348;2023-07-20T09:50:11;21.00;97.80
16523;DHT22;19889;52.546;13.348;2023-07-20T09:52:43;20.90;97.70
16523;DHT22;19889;52.546;13.348;2023-07-20T09:55:26;20.90;97.80
16523;DHT22;19889;52.546;13.348;2023-07-20T09:57:54;20.90;97.90
16523;DHT22;19889;52.546;13.348;2023-07-20T10:00:24;20.80;98.00
16523;DHT22;19889;52.546;13.348;2023-07-20T10:02:54;20.80;98.10
16523;DHT22;19889;52.546;13.348;2023-07-20T10:05:25;20.80;98.20
16523;DHT22;19889;52.546;13.348;2023-07-20T10:07:55;20.80;98.30
16523;DHT22;19889;52.546;13.348;2023-07-20T10:10:25;20.80;98.30
16523;DHT22;19889;52.546;13.348;2023-07-20T10:12:53;20.80;98.40
16523;DHT22;19889;52.546;13.348;2023-07-20T10:15:25;20.80;98.40
16523;DHT22;19889;52.546;13.348;2023-07-20T10:18:03;20.80;98.50
16523;DHT22;19889;52.546;13.348;2023-07-20T10:20:36;20.80;98.40
16523;DHT22;19889;52.546;13.348;2023-07-20T10:23:04;20.80;98.40
16523;DHT22;19889;52.546;13.348;2023-07-20T10:25:33;20.80;98.30
16523;DHT22;19889;52.546;13.348;2023-07-20T10:28:05;20.80;98.20
16523;DHT22;19889;52.546;13.348;2023-07-20T10:30:35;20.80;98.20
16523;DHT22;19889;52.546;13.348;2023-07-20T10:33:17;20.80;98.10
16523;DHT22;19889;52.546;13.348;2023-07-20T10:35:51;20.80;98.00
16523;DHT22;19889;52.546;13.348;2023-07-20T10:38:19;20.80;98.00
16523;DHT22;19889;52.546;13.348;2023-07-20T10:40:55;20.80;98.00
16523;DHT22;19889;52.546;13.348;2023-07-20T10:43:23;20.80;98.00
16523;DHT22;19889;52.546;13.348;2023-07-20T10:45:54;20.90;98.10
16523;DHT22;19889;52.546;13.348;2023-07-20T10:48:24;20.90;98.10
16523;DHT22;19889;52.546;13.348;2023-07-20T10:51:21;20.90;98.10
16523;DHT22;19889;52.546;13.348;2023-07-20T10:53:49;21.00;98.20
16523;DHT22;19889;52.546;13.348;2023-07-20T10:56:21;21.00;98.20
16523;DHT22;19889;52.546;13.348;2023-07-20T10:58:48;21.00;98.20
16523;DHT22;19889;52.546;13.348;2023-07-20T11:01:17;21.10;98.20
16523;DHT22;19889;52.546;13.348;2023-07-20T11:03:58;21.10;98.20
16523;DHT22;19889;52.546;13.348;2023-07-20T11:06:31;21.10;98.00
16523;DHT22;19889;52.546;13.348;2023-07-20T11:09:09;21.10;97.90
16523;DHT22;19889;52.546;13.348;2023-07-20T11:11:41;21.10;97.80
16523;DHT22;19889;52.546;13.348;2023-07-20T11:14:10;21.10;97.80
16523;DHT22;19889;52.546;13.348;2023-07-20T11:16:40;21.10;97.70
16523;DHT22;19889;52.546;13.348;2023-07-20T11:19:17;21.10;97.60
16523;DHT22;19889;52.546;13.348;2023-07-20T11:21:46;21.20;97.60
16523;DHT22;19889;52.546;13.348;2023-07-20T11:24:13;21.20;97.60
16523;DHT22;19889;52.546;13.348;2023-07-20T11:26:46;21.20;97.50
16523;DHT22;19889;52.546;13.348;2023-07-20T11:29:15;21.20;97.40
16523;DHT22;19889;52.546;13.348;2023-07-20T11:31:45;21.20;97.40
16523;DHT22;19889;52.546;13.348;2023-07-20T11:34:15;21.30;97.50
16523;DHT22;19889;52.546;13.348;2023-07-20T11:36:44;21.30;97.40
16523;DHT22;19889;52.546;13.348;2023-07-20T11:39:13;21.30;97.30
16523;DHT22;19889;52.546;13.348;2023-07-20T11:41:45;21.40;97.30
16523;DHT22;19889;52.546;13.348;2023-07-20T11:44:13;21.40;97.20
16523;DHT22;19889;52.546;13.348;2023-07-20T11:46:43;21.50;97.10
16523;DHT22;19889;52.546;13.348;2023-07-20T11:49:12;21.50;96.70
16523;DHT22;19889;52.546;13.348;2023-07-20T11:51:41;21.60;96.50
16523;DHT22;19889;52.546;13.348;2023-07-20T11:54:09;21.50;96.50
16523;DHT22;19889;52.546;13.348;2023-07-20T11:56:41;21.60;96.50
16523;DHT22;19889;52.546;13.348;2023-07-20T11:59:10;21.50;96.30
16523;DHT22;19889;52.546;13.348;2023-07-20T12:01:37;21.50;96.30
16523;DHT22;19889;52.546;13.348;2023-07-20T12:04:05;21.50;96.20
16523;DHT22;19889;52.546;13.348;2023-07-20T12:06:34;21.40;96.40
16523;DHT22;19889;52.546;13.348;2023-07-20T12:09:03;21.40;96.50
16523;DHT22;19889;52.546;13.348;2023-07-20T12:11:32;21.40;96.60
16523;DHT22;19889;52.546;13.348;2023-07-20T12:14:00;21.30;96.70
16523;DHT22;19889;52.546;13.348;2023-07-20T12:16:28;21.30;96.90
16523;DHT22;19889;52.546;13.348;2023-07-20T12:19:00;21.30;97.00
16523;DHT22;19889;52.546;13.348;2023-07-20T12:21:29;21.20;97.10
16523;DHT22;19889;52.546;13.348;2023-07-20T12:23:57;21.30;97.20
16523;DHT22;19889;52.546;13.348;2023-07-20T12:26:29;21.30;97.30
16523;DHT22;19889;52.546;13.348;2023-07-20T12:28:57;21.30;97.40
16523;DHT22;19889;52.546;13.348;2023-07-20T12:31:26;21.40;97.40
16523;DHT22;19889;52.546;13.348;2023-07-20T12:33:57;21.40;97.20
16523;DHT22;19889;52.546;13.348;2023-07-20T12:36:25;21.40;97.10
16523;DHT22;19889;52.546;13.348;2023-07-20T12:38:53;21.40;97.00
16523;DHT22;19889;52.546;13.348;2023-07-20T12:41:20;21.40;96.80
16523;DHT22;19889;52.546;13.348;2023-07-20T12:43:49;21.40;96.60
16523;DHT22;19889;52.546;13.348;2023-07-20T12:46:18;21.40;96.40
16523;DHT22;19889;52.546;13.348;2023-07-20T12:48:46;21.40;96.40
16523;DHT22;19889;52.546;13.348;2023-07-20T12:51:14;21.40;96.30
16523;DHT22;19889;52.546;13.348;2023-07-20T12:53:41;21.40;96.30
16523;DHT22;19889;52.546;13.348;2023-07-20T12:56:09;21.40;96.30
16523;DHT22;19889;52.546;13.348;2023-07-20T12:58:37;21.40;96.20
16523;DHT22;19889;52.546;13.348;2023-07-20T13:01:06;21.40;96.10
16523;DHT22;19889;52.546;13.348;2023-07-20T13:03:33;21.50;96.00
16523;DHT22;19889;52.546;13.348;2023-07-20T13:06:01;21.50;95.70
16523;DHT22;19889;52.546;13.348;2023-07-20T13:08:28;21.50;95.30
16523;DHT22;19889;52.546;13.348;2023-07-20T13:10:56;21.50;95.00
16523;DHT22;19889;52.546;13.348;2023-07-20T13:13:23;21.50;94.50
16523;DHT22;19889;52.546;13.348;2023-07-20T13:15:51;21.50;94.30
16523;DHT22;19889;52.546;13.348;2023-07-20T13:18:41;21.50;94.00
16523;DHT22;19889;52.546;13.348;2023-07-20T13:21:09;21.50;93.70
16523;DHT22;19889;52.546;13.348;2023-07-20T13:23:37;21.50;93.50
16523;DHT22;19889;52.546;13.348;2023-07-20T13:26:05;21.50;93.30
16523;DHT22;19889;52.546;13.348;2023-07-20T13:28:34;21.50;93.00
16523;DHT22;19889;52.546;13.348;2023-07-20T13:31:01;21.50;92.70
16523;DHT22;19889;52.546;13.348;2023-07-20T13:33:38;21.50;92.50
16523;DHT22;19889;52.546;13.348;2023-07-20T13:36:06;21.60;92.50
16523;DHT22;19889;52.546;13.348;2023-07-20T13:38:34;21.60;92.40
16523;DHT22;19889;52.546;13.348;2023-07-20T13:41:03;21.60;92.10
16523;DHT22;19889;52.546;13.348;2023-07-20T13:43:44;21.60;91.70
16523;DHT22;19889;52.546;13.348;2023-07-20T13:46:11;21.60;91.70
16523;DHT22;19889;52.546;13.348;2023-07-20T13:48:41;21.60;91.70
16523;DHT22;19889;52.546;13.348;2023-07-20T13:51:08;21.60;91.50
16523;DHT22;19889;52.546;13.348;2023-07-20T13:53:35;21.60;91.60
16523;DHT22;19889;52.546;13.348;2023-07-20T13:56:03;21.70;91.40
16523;DHT22;19889;52.546;13.348;2023-07-20T13:58:32;21.70;91.20
16523;DHT22;19889;52.546;13.348;2023-07-20T14:00:59;21.80;91.00
16523;DHT22;19889;52.546;13.348;2023-07-20T14:03:27;21.70;90.90
16523;DHT22;19889;52.546;13.348;2023-07-20T14:05:56;21.80;90.80
16523;DHT22;19889;52.546;13.348;2023-07-20T14:08:23;21.70;90.70
16523;DHT22;19889;52.546;13.348;2023-07-20T14:10:51;21.70;90.80
16523;DHT22;19889;52.546;13.348;2023-07-20T14:13:21;21.80;90.70
16523;DHT22;19889;52.546;13.348;2023-07-20T14:15:48;21.70;90.50
16523;DHT22;19889;52.546;13.348;2023-07-20T14:18:16;21.80;90.50
16523;DHT22;19889;52.546;13.348;2023-07-20T14:20:43;21.80;90.50
16523;DHT22;19889;52.546;13.348;2023-07-20T14:23:13;21.80;90.50
16523;DHT22;19889;52.546;13.348;2023-07-20T14:25:40;21.90;90.50
16523;DHT22;19889;52.546;13.348;2023-07-20T14:28:08;21.90;90.40
16523;DHT22;19889;52.546;13.348;2023-07-20T14:30:36;21.90;90.20
16523;DHT22;19889;52.546;13.348;2023-07-20T14:33:03;21.90;90.00
16523;DHT22;19889;52.546;13.348;2023-07-20T14:35:31;22.00;89.70
16523;DHT22;19889;52.546;13.348;2023-07-20T14:38:06;22.00;89.40
16523;DHT22;19889;52.546;13.348;2023-07-20T14:40:35;22.00;89.10
16523;DHT22;19889;52.546;13.348;2023-07-20T14:43:03;22.00;88.90
16523;DHT22;19889;52.546;13.348;2023-07-20T14:45:30;22.00;89.00
16523;DHT22;19889;52.546;13.348;2023-07-20T14:48:00;22.10;88.80
16523;DHT22;19889;52.546;13.348;2023-07-20T14:50:27;22.10;88.60
16523;DHT22;19889;52.546;13.348;2023-07-20T14:52:58;22.10;88.10
16523;DHT22;19889;52.546;13.348;2023-07-20T14:55:27;22.10;87.90
16523;DHT22;19889;52.546;13.348;2023-07-20T14:58:12;22.10;87.90
16523;DHT22;19889;52.546;13.348;2023-07-20T15:00:40;22.10;87.80
16523;DHT22;19889;52.546;13.348;2023-07-20T15:03:07;22.10;87.90
16523;DHT22;19889;52.546;13.348;2023-07-20T15:05:35;22.20;87.80
16523;DHT22;19889;52.546;13.348;2023-07-20T15:08:04;22.20;87.50
16523;DHT22;19889;52.546;13.348;2023-07-20T15:10:34;22.20;87.50
16523;DHT22;19889;52.546;13.348;2023-07-20T15:13:02;22.20;87.40
16523;DHT22;19889;52.546;13.348;2023-07-20T15:15:32;22.30;87.40
16523;DHT22;19889;52.546;13.348;2023-07-20T15:17:59;22.30;87.30
16523;DHT22;19889;52.546;13.348;2023-07-20T15:20:27;22.30;87.40
16523;DHT22;19889;52.546;13.348;2023-07-20T15:22:58;22.20;87.00
16523;DHT22;19889;52.546;13.348;2023-07-20T15:25:25;22.30;86.80
16523;DHT22;19889;52.546;13.348;2023-07-20T15:27:53;22.30;86.60
16523;DHT22;19889;52.546;13.348;2023-07-20T15:30:21;22.20;86.40
16523;DHT22;19889;52.546;13.348;2023-07-20T15:32:50;22.30;86.50
16523;DHT22;19889;52.546;13.348;2023-07-20T15:35:18;22.30;86.30